sensor_id;sensor_type;location;lat;lon;timestamp;pressure;altitude;pressure_sealevel;temperature
68012;BMP180;54794;48.348;7.878;2022-12-05T00:01:28;98964.00;;;5.10
68012;BMP180;54794;48.348;7.878;2022-12-05T00:03:59;98956.00;;;5.10
68012;BMP180;54794;48.348;7.878;2022-12-05T00:06:28;98955.00;;;5.00
68012;BMP180;54794;48.348;7.878;2022-12-05T00:08:57;98948.00;;;5.00
68012;BMP180;54794;48.348;7.878;2022-12-05T00:11:30;98949.00;;;4.90
68012;BMP180;54794;48.348;7.878;2022-12-05T00:14:00;98944.00;;;5.10
68012;BMP180;54794;48.348;7.878;2022-12-05T00:16:30;98940.00;;;5.00
68012;BMP180;54794;48.348;7.878;2022-12-05T00:18:59;98945.00;;;5.00
68012;BMP180;54794;48.348;7.878;2022-12-05T00:21:29;98945.00;;;5.10
68012;BMP180;54794;48.348;7.878;2022-12-05T00:23:58;98950.00;;;5.00
68012;BMP180;54794;48.348;7.878;2022-12-05T00:26:27;98959.00;;;4.80
68012;BMP180;54794;48.348;7.878;2022-12-05T00:28:56;98964.00;;;5.10
68012;BMP180;54794;48.348;7.878;2022-12-05T00:31:25;98969.00;;;5.20
68012;BMP180;54794;48.348;7.878;2022-12-05T00:33:53;98973.00;;;5.20
68012;BMP180;54794;48.348;7.878;2022-12-05T00:36:28;98974.00;;;5.20
68012;BMP180;54794;48.348;7.878;2022-12-05T00:38:58;98962.00;;;5.20
68012;BMP180;54794;48.348;7.878;2022-12-05T00:41:28;98968.00;;;5.20
68012;BMP180;54794;48.348;7.878;2022-12-05T00:43:57;98970.00;;;5.20
68012;BMP180;54794;48.348;7.878;2022-12-05T00:46:28;98957.00;;;5.20
68012;BMP180;54794;48.348;7.878;2022-12-05T00:48:58;98957.00;;;5.30
68012;BMP180;54794;48.348;7.878;2022-12-05T00:51:28;98953.00;;;5.20
68012;BMP180;54794;48.348;7.878;2022-12-05T00:54:02;98966.00;;;5.10
68012;BMP180;54794;48.348;7.878;2022-12-05T00:56:31;98968.00;;;5.20
68012;BMP180;54794;48.348;7.878;2022-12-05T00:59:00;98969.00;;;5.20
68012;BMP180;54794;48.348;7.878;2022-12-05T01:01:37;98971.00;;;5.20
68012;BMP180;54794;48.348;7.878;2022-12-05T01:04:09;98982.00;;;5.30
68012;BMP180;54794;48.348;7.878;2022-12-05T01:06:37;98979.00;;;5.30
68012;BMP180;54794;48.348;7.878;2022-12-05T01:09:07;98988.00;;;5.20
68012;BMP180;54794;48.348;7.878;2022-12-05T01:11:34;98976.00;;;5.30
68012;BMP180;54794;48.348;7.878;2022-12-05T01:14:08;98976.00;;;5.20
68012;BMP180;54794;48.348;7.878;2022-12-05T01:16:38;98979.00;;;5.20
68012;BMP180;54794;48.348;7.878;2022-12-05T01:19:11;98981.00;;;5.20
68012;BMP180;54794;48.348;7.878;2022-12-05T01:21:39;98982.00;;;5.10
68012;BMP180;54794;48.348;7.878;2022-12-05T01:24:06;98976.00;;;5.30
68012;BMP180;54794;48.348;7.878;2022-12-05T01:26:33;98969.00;;;5.30
68012;BMP180;54794;48.348;7.878;2022-12-05T01:29:00;98979.00;;;5.20
68012;BMP180;54794;48.348;7.878;2022-12-05T01:31:33;98977.00;;;5.30
68012;BMP180;54794;48.348;7.878;2022-12-05T01:34:06;98979.00;;;5.10
68012;BMP180;54794;48.348;7.878;2022-12-05T01:36:33;98992.00;;;5.20
68012;BMP180;54794;48.348;7.878;2022-12-05T01:39:00;98999.00;;;5.20
68012;BMP180;54794;48.348;7.878;2022-12-05T01:41:31;99002.00;;;5.20
68012;BMP180;54794;48.348;7.878;2022-12-05T01:44:57;99006.00;;;5.10
68012;BMP180;54794;48.348;7.878;2022-12-05T01:46:56;99017.00;;;5.00
68012;BMP180;54794;48.348;7.878;2022-12-05T01:49:30;99021.00;;;5.20
68012;BMP180;54794;48.348;7.878;2022-12-05T01:52:17;99015.00;;;5.20
68012;BMP180;54794;48.348;7.878;2022-12-05T01:54:47;99021.00;;;5.30
68012;BMP180;54794;48.348;7.878;2022-12-05T01:57:15;99027.00;;;5.30
68012;BMP180;54794;48.348;7.878;2022-12-05T01:59:59;99023.00;;;5.30
68012;BMP180;54794;48.348;7.878;2022-12-05T02:02:30;99022.00;;;5.40
68012;BMP180;54794;48.348;7.878;2022-12-05T02:05:08;99033.00;;;5.30
68012;BMP180;54794;48.348;7.878;2022-12-05T02:07:40;99040.00;;;5.40
68012;BMP180;54794;48.348;7.878;2022-12-05T02:10:08;99032.00;;;5.30
68012;BMP180;54794;48.348;7.878;2022-12-05T02:12:36;99025.00;;;5.30
68012;BMP180;54794;48.348;7.878;2022-12-05T02:21:22;99016.00;;;5.20
68012;BMP180;54794;48.348;7.878;2022-12-05T02:24:23;99007.00;;;5.30
68012;BMP180;54794;48.348;7.878;2022-12-05T02:30:18;99024.00;;;5.20
68012;BMP180;54794;48.348;7.878;2022-12-05T02:32:59;99023.00;;;5.10
68012;BMP180;54794;48.348;7.878;2022-12-05T02:36:21;99011.00;;;5.20
68012;BMP180;54794;48.348;7.878;2022-12-05T02:39:10;99007.00;;;5.10
68012;BMP180;54794;48.348;7.878;2022-12-05T02:41:57;99015.00;;;5.20
68012;BMP180;54794;48.348;7.878;2022-12-05T02:44:42;99009.00;;;5.30
68012;BMP180;54794;48.348;7.878;2022-12-05T02:47:14;99025.00;;;5.30
68012;BMP180;54794;48.348;7.878;2022-12-05T02:49:43;99032.00;;;5.20
68012;BMP180;54794;48.348;7.878;2022-12-05T02:52:14;99017.00;;;5.30
68012;BMP180;54794;48.348;7.878;2022-12-05T02:54:47;99009.00;;;5.30
68012;BMP180;54794;48.348;7.878;2022-12-05T02:57:15;99018.00;;;5.10
68012;BMP180;54794;48.348;7.878;2022-12-05T02:59:43;99016.00;;;5.20
68012;BMP180;54794;48.348;7.878;2022-12-05T03:02:26;99025.00;;;5.10
68012;BMP180;54794;48.348;7.878;2022-12-05T03:08:03;99023.00;;;5.30
68012;BMP180;54794;48.348;7.878;2022-12-05T03:10:33;99022.00;;;5.30
68012;BMP180;54794;48.348;7.878;2022-12-05T03:13:11;99026.00;;;5.30
68012;BMP180;54794;48.348;7.878;2022-12-05T03:15:45;99022.00;;;5.30
68012;BMP180;54794;48.348;7.878;2022-12-05T03:18:24;99018.00;;;5.30
68012;BMP180;54794;48.348;7.878;2022-12-05T03:21:21;99015.00;;;5.40
68012;BMP180;54794;48.348;7.878;2022-12-05T03:23:55;99019.00;;;5.30
68012;BMP180;54794;48.348;7.878;2022-12-05T03:26:37;99003.00;;;5.30
68012;BMP180;54794;48.348;7.878;2022-12-05T03:29:25;99008.00;;;5.20
68012;BMP180;54794;48.348;7.878;2022-12-05T03:35:23;99008.00;;;5.30
68012;BMP180;54794;48.348;7.878;2022-12-05T03:38:08;98995.00;;;5.20
68012;BMP180;54794;48.348;7.878;2022-12-05T03:41:09;98996.00;;;5.20
68012;BMP180;54794;48.348;7.878;2022-12-05T03:44:13;99004.00;;;5.10
68012;BMP180;54794;48.348;7.878;2022-12-05T03:47:03;99010.00;;;5.10
68012;BMP180;54794;48.348;7.878;2022-12-05T03:49:44;99002.00;;;5.20
68012;BMP180;54794;48.348;7.878;2022-12-05T03:52:24;99001.00;;;5.00
68012;BMP180;54794;48.348;7.878;2022-12-05T03:54:58;99014.00;;;4.90
68012;BMP180;54794;48.348;7.878;2022-12-05T03:57:44;99009.00;;;5.00
68012;BMP180;54794;48.348;7.878;2022-12-05T04:00:15;99013.00;;;5.10
68012;BMP180;54794;48.348;7.878;2022-12-05T04:03:16;99015.00;;;5.10
68012;BMP180;54794;48.348;7.878;2022-12-05T04:05:51;99004.00;;;5.00
68012;BMP180;54794;48.348;7.878;2022-12-05T04:08:35;99015.00;;;5.10
68012;BMP180;54794;48.348;7.878;2022-12-05T04:11:10;99019.00;;;5.00
68012;BMP180;54794;48.348;7.878;2022-12-05T04:13:53;99017.00;;;5.00
68012;BMP180;54794;48.348;7.878;2022-12-05T04:16:50;99027.00;;;4.90
68012;BMP180;54794;48.348;7.878;2022-12-05T04:19:50;99036.00;;;4.90
68012;BMP180;54794;48.348;7.878;2022-12-05T04:22:38;99037.00;;;4.80
68012;BMP180;54794;48.348;7.878;2022-12-05T04:25:10;99042.00;;;4.50
68012;BMP180;54794;48.348;7.878;2022-12-05T04:28:17;99047.00;;;4.60
68012;BMP180;54794;48.348;7.878;2022-12-05T04:31:11;99054.00;;;4.80
68012;BMP180;54794;48.348;7.878;2022-12-05T04:33:54;99041.00;;;4.90
68012;BMP180;54794;48.348;7.878;2022-12-05T04:37:13;99042.00;;;5.10
68012;BMP180;54794;48.348;7.878;2022-12-05T04:39:44;99036.00;;;5.00
68012;BMP180;54794;48.348;7.878;2022-12-05T04:42:20;99039.00;;;5.00
68012;BMP180;54794;48.348;7.878;2022-12-05T04:44:53;99050.00;;;5.00
68012;BMP180;54794;48.348;7.878;2022-12-05T04:47:26;99044.00;;;4.90
68012;BMP180;54794;48.348;7.878;2022-12-05T04:49:56;99052.00;;;4.90
68012;BMP180;54794;48.348;7.878;2022-12-05T04:52:25;99054.00;;;5.00
68012;BMP180;54794;48.348;7.878;2022-12-05T04:55:14;99056.00;;;5.10
68012;BMP180;54794;48.348;7.878;2022-12-05T04:58:12;99068.00;;;5.10
68012;BMP180;54794;48.348;7.878;2022-12-05T05:03:45;99065.00;;;4.60
68012;BMP180;54794;48.348;7.878;2022-12-05T05:06:14;99079.00;;;4.70
68012;BMP180;54794;48.348;7.878;2022-12-05T05:08:50;99076.00;;;5.10
68012;BMP180;54794;48.348;7.878;2022-12-05T05:11:25;99069.00;;;5.00
68012;BMP180;54794;48.348;7.878;2022-12-05T05:13:53;99086.00;;;4.90
68012;BMP180;54794;48.348;7.878;2022-12-05T05:16:26;99082.00;;;5.10
68012;BMP180;54794;48.348;7.878;2022-12-05T05:18:54;99091.00;;;5.10
68012;BMP180;54794;48.348;7.878;2022-12-05T05:23:58;99089.00;;;4.90
68012;BMP180;54794;48.348;7.878;2022-12-05T05:26:26;99083.00;;;4.90
68012;BMP180;54794;48.348;7.878;2022-12-05T05:28:53;99088.00;;;5.00
68012;BMP180;54794;48.348;7.878;2022-12-05T05:31:20;99081.00;;;5.10
68012;BMP180;54794;48.348;7.878;2022-12-05T05:33:49;99091.00;;;5.10
68012;BMP180;54794;48.348;7.878;2022-12-05T05:36:16;99092.00;;;5.10
68012;BMP180;54794;48.348;7.878;2022-12-05T05:38:47;99092.00;;;5.10
68012;BMP180;54794;48.348;7.878;2022-12-05T05:43:45;99108.00;;;5.30
68012;BMP180;54794;48.348;7.878;2022-12-05T05:46:13;99109.00;;;5.30
68012;BMP180;54794;48.348;7.878;2022-12-05T05:48:40;99105.00;;;5.30
68012;BMP180;54794;48.348;7.878;2022-12-05T05:51:10;99104.00;;;5.20
68012;BMP180;54794;48.348;7.878;2022-12-05T05:53:37;99105.00;;;5.20
68012;BMP180;54794;48.348;7.878;2022-12-05T05:56:08;99111.00;;;5.30
68012;BMP180;54794;48.348;7.878;2022-12-05T05:58:36;99111.00;;;5.30
68012;BMP180;54794;48.348;7.878;2022-12-05T06:01:11;99120.00;;;5.30
68012;BMP180;54794;48.348;7.878;2022-12-05T06:03:38;99125.00;;;5.20
68012;BMP180;54794;48.348;7.878;2022-12-05T06:06:10;99122.00;;;5.30
68012;BMP180;54794;48.348;7.878;2022-12-05T06:08:41;99127.00;;;5.20
68012;BMP180;54794;48.348;7.878;2022-12-05T06:11:18;99123.00;;;5.10
68012;BMP180;54794;48.348;7.878;2022-12-05T06:13:53;99125.00;;;5.30
68012;BMP180;54794;48.348;7.878;2022-12-05T06:16:20;99140.00;;;5.10
68012;BMP180;54794;48.348;7.878;2022-12-05T06:18:48;99147.00;;;5.00
68012;BMP180;54794;48.348;7.878;2022-12-05T06:21:18;99158.00;;;5.20
68012;BMP180;54794;48.348;7.878;2022-12-05T06:23:45;99146.00;;;4.90
68012;BMP180;54794;48.348;7.878;2022-12-05T06:26:16;99152.00;;;5.10
68012;BMP180;54794;48.348;7.878;2022-12-05T06:28:43;99160.00;;;5.10
68012;BMP180;54794;48.348;7.878;2022-12-05T06:31:14;99169.00;;;5.20
68012;BMP180;54794;48.348;7.878;2022-12-05T06:33:42;99164.00;;;5.20
68012;BMP180;54794;48.348;7.878;2022-12-05T06:36:17;99163.00;;;5.30
68012;BMP180;54794;48.348;7.878;2022-12-05T06:38:44;99170.00;;;5.30
68012;BMP180;54794;48.348;7.878;2022-12-05T06:41:15;99174.00;;;5.10
68012;BMP180;54794;48.348;7.878;2022-12-05T06:43:43;99185.00;;;5.00
68012;BMP180;54794;48.348;7.878;2022-12-05T06:46:12;99176.00;;;5.00
68012;BMP180;54794;48.348;7.878;2022-12-05T06:48:39;99175.00;;;5.00
68012;BMP180;54794;48.348;7.878;2022-12-05T06:51:14;99193.00;;;4.90
68012;BMP180;54794;48.348;7.878;2022-12-05T06:53:41;99189.00;;;4.80
68012;BMP180;54794;48.348;7.878;2022-12-05T06:56:12;99181.00;;;4.90
68012;BMP180;54794;48.348;7.878;2022-12-05T06:58:44;99187.00;;;4.70
68012;BMP180;54794;48.348;7.878;2022-12-05T07:01:20;99196.00;;;4.80
68012;BMP180;54794;48.348;7.878;2022-12-05T07:04:20;99190.00;;;5.00
68012;BMP180;54794;48.348;7.878;2022-12-05T07:06:53;99194.00;;;5.00
68012;BMP180;54794;48.348;7.878;2022-12-05T07:09:24;99202.00;;;5.10
68012;BMP180;54794;48.348;7.878;2022-12-05T07:12:17;99196.00;;;5.00
68012;BMP180;54794;48.348;7.878;2022-12-05T07:14:45;99193.00;;;5.20
68012;BMP180;54794;48.348;7.878;2022-12-05T07:17:17;99188.00;;;5.20
68012;BMP180;54794;48.348;7.878;2022-12-05T07:19:49;99201.00;;;5.20
68012;BMP180;54794;48.348;7.878;2022-12-05T07:22:19;99191.00;;;5.40
68012;BMP180;54794;48.348;7.878;2022-12-05T07:24:47;99209.00;;;5.40
68012;BMP180;54794;48.348;7.878;2022-12-05T07:27:14;99199.00;;;5.40
68012;BMP180;54794;48.348;7.878;2022-12-05T07:29:45;99199.00;;;5.20
68012;BMP180;54794;48.348;7.878;2022-12-05T07:32:12;99206.00;;;5.30
68012;BMP180;54794;48.348;7.878;2022-12-05T07:34:40;99206.00;;;5.10
68012;BMP180;54794;48.348;7.878;2022-12-05T07:37:07;99207.00;;;5.20
68012;BMP180;54794;48.348;7.878;2022-12-05T07:39:34;99202.00;;;5.30
68012;BMP180;54794;48.348;7.878;2022-12-05T07:42:01;99204.00;;;5.30
68012;BMP180;54794;48.348;7.878;2022-12-05T07:44:28;99209.00;;;5.30
68012;BMP180;54794;48.348;7.878;2022-12-05T07:46:56;99210.00;;;5.30
68012;BMP180;54794;48.348;7.878;2022-12-05T07:49:23;99209.00;;;5.50
68012;BMP180;54794;48.348;7.878;2022-12-05T07:51:50;99220.00;;;5.40
68012;BMP180;54794;48.348;7.878;2022-12-05T07:54:18;99218.00;;;5.40
68012;BMP180;54794;48.348;7.878;2022-12-05T07:56:45;99225.00;;;5.60
68012;BMP180;54794;48.348;7.878;2022-12-05T07:59:13;99226.00;;;5.50
68012;BMP180;54794;48.348;7.878;2022-12-05T08:01:40;99229.00;;;5.60
68012;BMP180;54794;48.348;7.878;2022-12-05T08:04:07;99233.00;;;5.50
68012;BMP180;54794;48.348;7.878;2022-12-05T08:06:41;99230.00;;;5.50
68012;BMP180;54794;48.348;7.878;2022-12-05T08:09:07;99228.00;;;5.50
68012;BMP180;54794;48.348;7.878;2022-12-05T08:11:34;99231.00;;;5.50
68012;BMP180;54794;48.348;7.878;2022-12-05T08:14:04;99234.00;;;5.60
68012;BMP180;54794;48.348;7.878;2022-12-05T08:16:32;99232.00;;;5.60
68012;BMP180;54794;48.348;7.878;2022-12-05T08:19:05;99227.00;;;5.70
68012;BMP180;54794;48.348;7.878;2022-12-05T08:21:33;99239.00;;;5.60
68012;BMP180;54794;48.348;7.878;2022-12-05T08:24:03;99235.00;;;5.60
68012;BMP180;54794;48.348;7.878;2022-12-05T08:26:32;99239.00;;;5.70
68012;BMP180;54794;48.348;7.878;2022-12-05T08:29:03;99238.00;;;5.70
68012;BMP180;54794;48.348;7.878;2022-12-05T08:31:35;99240.00;;;5.70
68012;BMP180;54794;48.348;7.878;2022-12-05T08:34:02;99244.00;;;5.70
68012;BMP180;54794;48.348;7.878;2022-12-05T08:36:30;99243.00;;;5.70
68012;BMP180;54794;48.348;7.878;2022-12-05T08:39:04;99242.00;;;5.80
68012;BMP180;54794;48.348;7.878;2022-12-05T08:41:33;99247.00;;;5.80
68012;BMP180;54794;48.348;7.878;2022-12-05T08:44:05;99253.00;;;5.90
68012;BMP180;54794;48.348;7.878;2022-12-05T08:46:37;99263.00;;;6.00
68012;BMP180;54794;48.348;7.878;2022-12-05T08:49:05;99261.00;;;6.00
68012;BMP180;54794;48.348;7.878;2022-12-05T08:51:32;99261.00;;;6.20
68012;BMP180;54794;48.348;7.878;2022-12-05T08:54:02;99269.00;;;6.20
68012;BMP180;54794;48.348;7.878;2022-12-05T08:56:29;99272.00;;;6.10
68012;BMP180;54794;48.348;7.878;2022-12-05T08:58:56;99268.00;;;6.20
68012;BMP180;54794;48.348;7.878;2022-12-05T09:01:33;99269.00;;;6.20
68012;BMP180;54794;48.348;7.878;2022-12-05T09:04:04;99279.00;;;6.30
68012;BMP180;54794;48.348;7.878;2022-12-05T09:06:32;99263.00;;;6.30
68012;BMP180;54794;48.348;7.878;2022-12-05T09:09:04;99279.00;;;6.20
68012;BMP180;54794;48.348;7.878;2022-12-05T09:11:35;99283.00;;;6.30
68012;BMP180;54794;48.348;7.878;2022-12-05T09:14:03;99279.00;;;6.30
68012;BMP180;54794;48.348;7.878;2022-12-05T09:16:34;99293.00;;;6.40
68012;BMP180;54794;48.348;7.878;2022-12-05T09:19:14;99292.00;;;6.40
68012;BMP180;54794;48.348;7.878;2022-12-05T09:21:42;99296.00;;;6.30
68012;BMP180;54794;48.348;7.878;2022-12-05T09:24:12;99300.00;;;6.50
68012;BMP180;54794;48.348;7.878;2022-12-05T09:26:40;99295.00;;;6.50
68012;BMP180;54794;48.348;7.878;2022-12-05T09:29:09;99313.00;;;6.50
68012;BMP180;54794;48.348;7.878;2022-12-05T09:31:44;99320.00;;;6.50
68012;BMP180;54794;48.348;7.878;2022-12-05T09:34:13;99326.00;;;6.50
68012;BMP180;54794;48.348;7.878;2022-12-05T09:36:41;99323.00;;;6.50
68012;BMP180;54794;48.348;7.878;2022-12-05T09:39:10;99333.00;;;6.70
68012;BMP180;54794;48.348;7.878;2022-12-05T09:42:17;99336.00;;;6.80
68012;BMP180;54794;48.348;7.878;2022-12-05T09:50:48;99328.00;;;7.00
68012;BMP180;54794;48.348;7.878;2022-12-05T09:53:33;99326.00;;;7.10
68012;BMP180;54794;48.348;7.878;2022-12-05T09:56:12;99323.00;;;7.00
68012;BMP180;54794;48.348;7.878;2022-12-05T09:58:44;99321.00;;;7.00
68012;BMP180;54794;48.348;7.878;2022-12-05T10:01:51;99322.00;;;6.90
68012;BMP180;54794;48.348;7.878;2022-12-05T10:19:57;99315.00;;;6.80
68012;BMP180;54794;48.348;7.878;2022-12-05T10:23:14;99308.00;;;6.90
68012;BMP180;54794;48.348;7.878;2022-12-05T10:45:01;99305.00;;;7.20
68012;BMP180;54794;48.348;7.878;2022-12-05T10:59:46;99305.00;;;7.30
68012;BMP180;54794;48.348;7.878;2022-12-05T11:07:04;99296.00;;;7.60
68012;BMP180;54794;48.348;7.878;2022-12-05T11:11:17;99295.00;;;7.60
68012;BMP180;54794;48.348;7.878;2022-12-05T11:13:25;99289.00;;;7.50
68012;BMP180;54794;48.348;7.878;2022-12-05T11:15:52;99289.00;;;7.50
68012;BMP180;54794;48.348;7.878;2022-12-05T11:18:32;99291.00;;;7.50
68012;BMP180;54794;48.348;7.878;2022-12-05T11:21:12;99287.00;;;7.70
68012;BMP180;54794;48.348;7.878;2022-12-05T11:23:40;99278.00;;;7.60
68012;BMP180;54794;48.348;7.878;2022-12-05T11:26:40;99280.00;;;7.70
68012;BMP180;54794;48.348;7.878;2022-12-05T11:29:36;99285.00;;;7.50
68012;BMP180;54794;48.348;7.878;2022-12-05T11:32:16;99284.00;;;7.60
68012;BMP180;54794;48.348;7.878;2022-12-05T11:34:57;99287.00;;;7.60
68012;BMP180;54794;48.348;7.878;2022-12-05T11:38:01;99278.00;;;7.70
68012;BMP180;54794;48.348;7.878;2022-12-05T11:40:49;99283.00;;;7.70
68012;BMP180;54794;48.348;7.878;2022-12-05T11:55:41;99265.00;;;7.60
68012;BMP180;54794;48.348;7.878;2022-12-05T12:04:33;99266.00;;;7.80
68012;BMP180;54794;48.348;7.878;2022-12-05T12:15:15;99268.00;;;7.80
68012;BMP180;54794;48.348;7.878;2022-12-05T12:21:15;99261.00;;;7.90
68012;BMP180;54794;48.348;7.878;2022-12-05T12:24:15;99260.00;;;7.90
68012;BMP180;54794;48.348;7.878;2022-12-05T12:30:34;99270.00;;;8.10
68012;BMP180;54794;48.348;7.878;2022-12-05T12:33:34;99284.00;;;8.20
68012;BMP180;54794;48.348;7.878;2022-12-05T12:36:27;99274.00;;;8.10
68012;BMP180;54794;48.348;7.878;2022-12-05T12:52:15;99278.00;;;9.20
68012;BMP180;54794;48.348;7.878;2022-12-05T12:55:12;99263.00;;;9.00
68012;BMP180;54794;48.348;7.878;2022-12-05T13:01:31;99276.00;;;9.10
68012;BMP180;54794;48.348;7.878;2022-12-05T13:11:03;99261.00;;;8.80
68012;BMP180;54794;48.348;7.878;2022-12-05T13:21:58;99256.00;;;8.70
68012;BMP180;54794;48.348;7.878;2022-12-05T13:24:27;99257.00;;;8.90
68012;BMP180;54794;48.348;7.878;2022-12-05T13:27:01;99257.00;;;9.20
68012;BMP180;54794;48.348;7.878;2022-12-05T13:30:01;99245.00;;;9.20
68012;BMP180;54794;48.348;7.878;2022-12-05T13:36:57;99260.00;;;9.70
68012;BMP180;54794;48.348;7.878;2022-12-05T13:39:52;99246.00;;;10.20
68012;BMP180;54794;48.348;7.878;2022-12-05T13:42:39;99251.00;;;10.50
68012;BMP180;54794;48.348;7.878;2022-12-05T13:45:16;99246.00;;;10.60
68012;BMP180;54794;48.348;7.878;2022-12-05T13:48:10;99250.00;;;10.80
68012;BMP180;54794;48.348;7.878;2022-12-05T13:51:01;99259.00;;;10.30
68012;BMP180;54794;48.348;7.878;2022-12-05T13:53:48;99255.00;;;9.90
68012;BMP180;54794;48.348;7.878;2022-12-05T13:58:54;99256.00;;;9.80
68012;BMP180;54794;48.348;7.878;2022-12-05T14:04:01;99251.00;;;9.70
68012;BMP180;54794;48.348;7.878;2022-12-05T14:17:27;99247.00;;;9.80
68012;BMP180;54794;48.348;7.878;2022-12-05T14:39:50;99250.00;;;9.20
68012;BMP180;54794;48.348;7.878;2022-12-05T14:42:35;99257.00;;;9.30
68012;BMP180;54794;48.348;7.878;2022-12-05T14:45:37;99268.00;;;9.20
68012;BMP180;54794;48.348;7.878;2022-12-05T14:50:47;99272.00;;;9.20
68012;BMP180;54794;48.348;7.878;2022-12-05T14:55:43;99270.00;;;9.00
68012;BMP180;54794;48.348;7.878;2022-12-05T14:58:36;99268.00;;;9.20
68012;BMP180;54794;48.348;7.878;2022-12-05T15:01:21;99278.00;;;9.30
68012;BMP180;54794;48.348;7.878;2022-12-05T15:07:04;99282.00;;;9.30
68012;BMP180;54794;48.348;7.878;2022-12-05T15:10:03;99279.00;;;9.10
68012;BMP180;54794;48.348;7.878;2022-12-05T15:12:45;99271.00;;;9.10
68012;BMP180;54794;48.348;7.878;2022-12-05T15:15:53;99277.00;;;9.10
68012;BMP180;54794;48.348;7.878;2022-12-05T15:19:13;99273.00;;;9.00
68012;BMP180;54794;48.348;7.878;2022-12-05T15:21:52;99285.00;;;9.00
68012;BMP180;54794;48.348;7.878;2022-12-05T15:24:22;99283.00;;;9.00
68012;BMP180;54794;48.348;7.878;2022-12-05T15:26:55;99281.00;;;9.10
68012;BMP180;54794;48.348;7.878;2022-12-05T15:29:25;99278.00;;;9.00
68012;BMP180;54794;48.348;7.878;2022-12-05T15:32:05;99273.00;;;9.00
68012;BMP180;54794;48.348;7.878;2022-12-05T15:37:56;99286.00;;;8.70
68012;BMP180;54794;48.348;7.878;2022-12-05T15:40:25;99289.00;;;8.70
68012;BMP180;54794;48.348;7.878;2022-12-05T15:42:55;99289.00;;;8.70
68012;BMP180;54794;48.348;7.878;2022-12-05T15:45:26;99294.00;;;8.60
68012;BMP180;54794;48.348;7.878;2022-12-05T15:48:11;99295.00;;;8.70
68012;BMP180;54794;48.348;7.878;2022-12-05T15:50:52;99292.00;;;8.60
68012;BMP180;54794;48.348;7.878;2022-12-05T15:56:29;99310.00;;;8.50
68012;BMP180;54794;48.348;7.878;2022-12-05T15:59:41;99318.00;;;8.50
68012;BMP180;54794;48.348;7.878;2022-12-05T16:02:49;99316.00;;;8.50
68012;BMP180;54794;48.348;7.878;2022-12-05T16:06:02;99314.00;;;8.40
68012;BMP180;54794;48.348;7.878;2022-12-05T16:09:03;99315.00;;;8.20
68012;BMP180;54794;48.348;7.878;2022-12-05T16:11:37;99317.00;;;8.30
68012;BMP180;54794;48.348;7.878;2022-12-05T16:14:48;99316.00;;;8.30
68012;BMP180;54794;48.348;7.878;2022-12-05T16:17:45;99317.00;;;8.20
68012;BMP180;54794;48.348;7.878;2022-12-05T16:22:52;99324.00;;;8.10
68012;BMP180;54794;48.348;7.878;2022-12-05T16:25:33;99329.00;;;8.20
68012;BMP180;54794;48.348;7.878;2022-12-05T16:28:21;99326.00;;;8.30
68012;BMP180;54794;48.348;7.878;2022-12-05T16:30:58;99329.00;;;8.30
68012;BMP180;54794;48.348;7.878;2022-12-05T16:33:28;99319.00;;;8.20
68012;BMP180;54794;48.348;7.878;2022-12-05T16:36:08;99324.00;;;7.90
68012;BMP180;54794;48.348;7.878;2022-12-05T16:38:36;99325.00;;;8.00
68012;BMP180;54794;48.348;7.878;2022-12-05T16:41:05;99323.00;;;8.10
68012;BMP180;54794;48.348;7.878;2022-12-05T16:49:23;99328.00;;;7.70
68012;BMP180;54794;48.348;7.878;2022-12-05T16:52:00;99327.00;;;8.00
68012;BMP180;54794;48.348;7.878;2022-12-05T16:54:28;99338.00;;;7.90
68012;BMP180;54794;48.348;7.878;2022-12-05T16:56:58;99338.00;;;7.90
68012;BMP180;54794;48.348;7.878;2022-12-05T16:59:42;99337.00;;;7.90
68012;BMP180;54794;48.348;7.878;2022-12-05T17:02:15;99333.00;;;8.00
68012;BMP180;54794;48.348;7.878;2022-12-05T17:04:43;99341.00;;;7.90
68012;BMP180;54794;48.348;7.878;2022-12-05T17:07:11;99341.00;;;7.90
68012;BMP180;54794;48.348;7.878;2022-12-05T17:09:38;99356.00;;;7.80
68012;BMP180;54794;48.348;7.878;2022-12-05T17:12:15;99342.00;;;7.90
68012;BMP180;54794;48.348;7.878;2022-12-05T17:14:44;99347.00;;;8.10
68012;BMP180;54794;48.348;7.878;2022-12-05T17:17:13;99356.00;;;8.00
68012;BMP180;54794;48.348;7.878;2022-12-05T17:23:40;99351.00;;;7.60
68012;BMP180;54794;48.348;7.878;2022-12-05T17:26:42;99343.00;;;7.80
68012;BMP180;54794;48.348;7.878;2022-12-05T17:29:09;99356.00;;;7.90
68012;BMP180;54794;48.348;7.878;2022-12-05T17:31:37;99356.00;;;7.80
68012;BMP180;54794;48.348;7.878;2022-12-05T17:34:22;99360.00;;;7.90
68012;BMP180;54794;48.348;7.878;2022-12-05T17:37:36;99368.00;;;7.90
68012;BMP180;54794;48.348;7.878;2022-12-05T17:40:12;99371.00;;;7.80
68012;BMP180;54794;48.348;7.878;2022-12-05T17:42:40;99368.00;;;7.80
68012;BMP180;54794;48.348;7.878;2022-12-05T17:45:13;99372.00;;;7.80
68012;BMP180;54794;48.348;7.878;2022-12-05T17:47:41;99373.00;;;7.80
68012;BMP180;54794;48.348;7.878;2022-12-05T17:50:18;99370.00;;;7.70
68012;BMP180;54794;48.348;7.878;2022-12-05T17:52:45;99370.00;;;7.70
68012;BMP180;54794;48.348;7.878;2022-12-05T17:55:35;99379.00;;;7.60
68012;BMP180;54794;48.348;7.878;2022-12-05T17:58:02;99380.00;;;7.60
68012;BMP180;54794;48.348;7.878;2022-12-05T18:00:29;99381.00;;;7.50
68012;BMP180;54794;48.348;7.878;2022-12-05T18:02:56;99375.00;;;7.60
68012;BMP180;54794;48.348;7.878;2022-12-05T18:05:23;99370.00;;;7.80
68012;BMP180;54794;48.348;7.878;2022-12-05T18:07:50;99378.00;;;7.80
68012;BMP180;54794;48.348;7.878;2022-12-05T18:11:11;99390.00;;;7.80
68012;BMP180;54794;48.348;7.878;2022-12-05T18:13:39;99388.00;;;7.60
68012;BMP180;54794;48.348;7.878;2022-12-05T18:16:07;99391.00;;;7.60
68012;BMP180;54794;48.348;7.878;2022-12-05T18:18:34;99378.00;;;7.70
68012;BMP180;54794;48.348;7.878;2022-12-05T18:21:09;99385.00;;;7.60
68012;BMP180;54794;48.348;7.878;2022-12-05T18:23:38;99392.00;;;7.50
68012;BMP180;54794;48.348;7.878;2022-12-05T18:26:07;99397.00;;;7.50
68012;BMP180;54794;48.348;7.878;2022-12-05T18:28:45;99385.00;;;7.50
68012;BMP180;54794;48.348;7.878;2022-12-05T18:31:16;99389.00;;;7.40
68012;BMP180;54794;48.348;7.878;2022-12-05T18:33:52;99383.00;;;7.40
68012;BMP180;54794;48.348;7.878;2022-12-05T18:36:37;99386.00;;;7.30
68012;BMP180;54794;48.348;7.878;2022-12-05T18:39:13;99389.00;;;7.30
68012;BMP180;54794;48.348;7.878;2022-12-05T18:42:10;99391.00;;;7.30
68012;BMP180;54794;48.348;7.878;2022-12-05T18:45:04;99392.00;;;7.30
68012;BMP180;54794;48.348;7.878;2022-12-05T18:47:52;99410.00;;;7.40
68012;BMP180;54794;48.348;7.878;2022-12-05T18:50:35;99403.00;;;7.50